sensor_id;sensor_type;location;lat;lon;timestamp;P1;durP1;ratioP1;P2;durP2;ratioP2
20393;SDS011;10356;50.544;9.642;2023-08-01T00:00:26;8.32;;;3.58;;
20393;SDS011;10356;50.544;9.642;2023-08-01T00:02:53;5.43;;;3.60;;
20393;SDS011;10356;50.544;9.642;2023-08-01T00:05:20;5.20;;;3.40;;
20393;SDS011;10356;50.544;9.642;2023-08-01T00:07:46;7.47;;;3.72;;
20393;SDS011;10356;50.544;9.642;2023-08-01T00:10:13;5.05;;;3.35;;
20393;SDS011;10356;50.544;9.642;2023-08-01T00:12:41;5.53;;;3.55;;
20393;SDS011;10356;50.544;9.642;2023-08-01T00:15:08;4.30;;;3.17;;
20393;SDS011;10356;50.544;9.642;2023-08-01T00:17:36;6.32;;;2.90;;
20393;SDS011;10356;50.544;9.642;2023-08-01T00:20:03;7.53;;;3.80;;
20393;SDS011;10356;50.544;9.642;2023-08-01T00:22:30;6.60;;;3.25;;
20393;SDS011;10356;50.544;9.642;2023-08-01T00:24:57;3.97;;;3.30;;
20393;SDS011;10356;50.544;9.642;2023-08-01T00:27:23;4.00;;;2.67;;
20393;SDS011;10356;50.544;9.642;2023-08-01T00:29:50;2.95;;;2.05;;
20393;SDS011;10356;50.544;9.642;2023-08-01T00:32:16;3.78;;;2.00;;
20393;SDS011;10356;50.544;9.642;2023-08-01T00:34:43;2.67;;;2.40;;
20393;SDS011;10356;50.544;9.642;2023-08-01T00:37:10;3.45;;;2.30;;
20393;SDS011;10356;50.544;9.642;2023-08-01T00:39:37;4.65;;;2.50;;
20393;SDS011;10356;50.544;9.642;2023-08-01T00:42:04;3.67;;;2.45;;
20393;SDS011;10356;50.544;9.642;2023-08-01T00:44:30;3.08;;;2.33;;
20393;SDS011;10356;50.544;9.642;2023-08-01T00:46:57;5.38;;;2.50;;
20393;SDS011;10356;50.544;9.642;2023-08-01T00:49:23;2.90;;;2.17;;
20393;SDS011;10356;50.544;9.642;2023-08-01T00:51:52;3.53;;;2.00;;
20393;SDS011;10356;50.544;9.642;2023-08-01T00:54:18;2.67;;;1.90;;
20393;SDS011;10356;50.544;9.642;2023-08-01T00:56:45;2.85;;;2.08;;
20393;SDS011;10356;50.544;9.642;2023-08-01T00:59:11;2.45;;;2.25;;
20393;SDS011;10356;50.544;9.642;2023-08-01T01:01:38;2.70;;;1.88;;
20393;SDS011;10356;50.544;9.642;2023-08-01T01:04:05;5.60;;;1.98;;
20393;SDS011;10356;50.544;9.642;2023-08-01T01:06:32;3.53;;;1.80;;
20393;SDS011;10356;50.544;9.642;2023-08-01T01:09:02;2.58;;;1.60;;
20393;SDS011;10356;50.544;9.642;2023-08-01T01:11:30;2.47;;;1.90;;
20393;SDS011;10356;50.544;9.642;2023-08-01T01:13:56;3.20;;;1.85;;
20393;SDS011;10356;50.544;9.642;2023-08-01T01:16:23;3.92;;;1.70;;
20393;SDS011;10356;50.544;9.642;2023-08-01T01:18:49;3.30;;;1.58;;
20393;SDS011;10356;50.544;9.642;2023-08-01T01:21:17;1.55;;;1.45;;
20393;SDS011;10356;50.544;9.642;2023-08-01T01:23:44;2.72;;;1.40;;
20393;SDS011;10356;50.544;9.642;2023-08-01T01:26:11;2.83;;;1.48;;
20393;SDS011;10356;50.544;9.642;2023-08-01T01:28:38;1.60;;;1.20;;
20393;SDS011;10356;50.544;9.642;2023-08-01T01:31:07;2.85;;;1.33;;
20393;SDS011;10356;50.544;9.642;2023-08-01T01:33:33;2.03;;;1.30;;
20393;SDS011;10356;50.544;9.642;2023-08-01T01:36:00;1.67;;;1.38;;
20393;SDS011;10356;50.544;9.642;2023-08-01T01:38:29;3.00;;;0.90;;
20393;SDS011;10356;50.544;9.642;2023-08-01T01:40:55;2.03;;;1.40;;
20393;SDS011;10356;50.544;9.642;2023-08-01T01:43:22;1.95;;;1.20;;
20393;SDS011;10356;50.544;9.642;2023-08-01T01:45:48;1.80;;;1.33;;
20393;SDS011;10356;50.544;9.642;2023-08-01T01:48:15;2.47;;;1.25;;
20393;SDS011;10356;50.544;9.642;2023-08-01T01:50:41;1.52;;;1.20;;
20393;SDS011;10356;50.544;9.642;2023-08-01T01:53:08;2.15;;;1.35;;
20393;SDS011;10356;50.544;9.642;2023-08-01T01:55:35;3.03;;;1.52;;
20393;SDS011;10356;50.544;9.642;2023-08-01T01:58:02;3.55;;;1.65;;
20393;SDS011;10356;50.544;9.642;2023-08-01T02:00:29;2.40;;;1.77;;
20393;SDS011;10356;50.544;9.642;2023-08-01T02:02:55;4.32;;;1.63;;
20393;SDS011;10356;50.544;9.642;2023-08-01T02:05:22;7.22;;;1.55;;
20393;SDS011;10356;50.544;9.642;2023-08-01T02:07:48;3.47;;;1.92;;
20393;SDS011;10356;50.544;9.642;2023-08-01T02:10:15;1.67;;;1.20;;
20393;SDS011;10356;50.544;9.642;2023-08-01T02:12:43;2.67;;;1.70;;
20393;SDS011;10356;50.544;9.642;2023-08-01T02:15:09;1.90;;;1.63;;
20393;SDS011;10356;50.544;9.642;2023-08-01T02:17:36;1.63;;;1.30;;
20393;SDS011;10356;50.544;9.642;2023-08-01T02:20:02;2.13;;;1.25;;
20393;SDS011;10356;50.544;9.642;2023-08-01T02:22:30;2.78;;;1.20;;
20393;SDS011;10356;50.544;9.642;2023-08-01T02:24:56;2.22;;;0.98;;
20393;SDS011;10356;50.544;9.642;2023-08-01T02:27:23;1.73;;;1.17;;
20393;SDS011;10356;50.544;9.642;2023-08-01T02:29:50;1.48;;;1.10;;
20393;SDS011;10356;50.544;9.642;2023-08-01T02:32:17;1.98;;;1.10;;
20393;SDS011;10356;50.544;9.642;2023-08-01T02:34:44;3.15;;;1.30;;
20393;SDS011;10356;50.544;9.642;2023-08-01T02:37:11;3.75;;;1.00;;
20393;SDS011;10356;50.544;9.642;2023-08-01T02:39:37;0.93;;;0.82;;
20393;SDS011;10356;50.544;9.642;2023-08-01T02:42:03;1.02;;;0.90;;
20393;SDS011;10356;50.544;9.642;2023-08-01T02:44:30;1.30;;;1.10;;
20393;SDS011;10356;50.544;9.642;2023-08-01T02:46:58;1.77;;;1.00;;
20393;SDS011;10356;50.544;9.642;2023-08-01T02:49:24;1.73;;;1.30;;
20393;SDS011;10356;50.544;9.642;2023-08-01T02:51:51;2.40;;;1.50;;
20393;SDS011;10356;50.544;9.642;2023-08-01T02:54:17;2.15;;;1.55;;
20393;SDS011;10356;50.544;9.642;2023-08-01T02:56:44;2.03;;;1.65;;
20393;SDS011;10356;50.544;9.642;2023-08-01T02:59:10;2.13;;;1.70;;
20393;SDS011;10356;50.544;9.642;2023-08-01T03:01:37;2.60;;;1.70;;
20393;SDS011;10356;50.544;9.642;2023-08-01T03:04:06;3.05;;;2.03;;
20393;SDS011;10356;50.544;9.642;2023-08-01T03:06:32;4.80;;;1.83;;
20393;SDS011;10356;50.544;9.642;2023-08-01T03:08:59;2.28;;;2.05;;
20393;SDS011;10356;50.544;9.642;2023-08-01T03:11:26;2.65;;;2.08;;
20393;SDS011;10356;50.544;9.642;2023-08-01T03:13:52;3.42;;;2.38;;
20393;SDS011;10356;50.544;9.642;2023-08-01T03:16:19;3.85;;;2.25;;
20393;SDS011;10356;50.544;9.642;2023-08-01T03:18:45;2.70;;;2.13;;
20393;SDS011;10356;50.544;9.642;2023-08-01T03:21:13;4.30;;;2.85;;
20393;SDS011;10356;50.544;9.642;2023-08-01T03:23:40;3.97;;;2.20;;
20393;SDS011;10356;50.544;9.642;2023-08-01T03:26:06;3.30;;;2.50;;
20393;SDS011;10356;50.544;9.642;2023-08-01T03:28:33;3.92;;;2.00;;
20393;SDS011;10356;50.544;9.642;2023-08-01T03:30:59;3.45;;;2.28;;
20393;SDS011;10356;50.544;9.642;2023-08-01T03:33:26;1.92;;;1.70;;
20393;SDS011;10356;50.544;9.642;2023-08-01T03:35:52;2.90;;;1.70;;
20393;SDS011;10356;50.544;9.642;2023-08-01T03:38:20;2.55;;;1.58;;
20393;SDS011;10356;50.544;9.642;2023-08-01T03:40:46;3.35;;;1.60;;
20393;SDS011;10356;50.544;9.642;2023-08-01T03:43:13;3.33;;;1.83;;
20393;SDS011;10356;50.544;9.642;2023-08-01T03:45:39;3.95;;;1.85;;
20393;SDS011;10356;50.544;9.642;2023-08-01T03:48:06;2.17;;;1.80;;
20393;SDS011;10356;50.544;9.642;2023-08-01T03:50:32;3.88;;;1.77;;
20393;SDS011;10356;50.544;9.642;2023-08-01T03:52:59;9.23;;;1.95;;
20393;SDS011;10356;50.544;9.642;2023-08-01T03:55:26;4.88;;;1.92;;
20393;SDS011;10356;50.544;9.642;2023-08-01T03:57:53;4.97;;;1.92;;
20393;SDS011;10356;50.544;9.642;2023-08-01T04:00:19;1.92;;;1.30;;
20393;SDS011;10356;50.544;9.642;2023-08-01T04:02:46;2.65;;;1.70;;
20393;SDS011;10356;50.544;9.642;2023-08-01T04:05:12;2.83;;;1.52;;
20393;SDS011;10356;50.544;9.642;2023-08-01T04:07:39;3.85;;;1.33;;
20393;SDS011;10356;50.544;9.642;2023-08-01T04:10:06;3.28;;;1.60;;
20393;SDS011;10356;50.544;9.642;2023-08-01T04:12:34;1.52;;;1.10;;
20393;SDS011;10356;50.544;9.642;2023-08-01T04:15:01;1.83;;;1.40;;
20393;SDS011;10356;50.544;9.642;2023-08-01T04:17:27;4.32;;;1.33;;
20393;SDS011;10356;50.544;9.642;2023-08-01T04:19:54;1.77;;;1.25;;
20393;SDS011;10356;50.544;9.642;2023-08-01T04:22:21;2.33;;;1.20;;
20393;SDS011;10356;50.544;9.642;2023-08-01T04:24:47;2.30;;;1.35;;
20393;SDS011;10356;50.544;9.642;2023-08-01T04:27:14;1.55;;;1.30;;
20393;SDS011;10356;50.544;9.642;2023-08-01T04:29:41;1.58;;;1.20;;
20393;SDS011;10356;50.544;9.642;2023-08-01T04:32:07;1.05;;;1.00;;
20393;SDS011;10356;50.544;9.642;2023-08-01T04:34:35;2.55;;;1.25;;
20393;SDS011;10356;50.544;9.642;2023-08-01T04:37:02;2.05;;;1.02;;
20393;SDS011;10356;50.544;9.642;2023-08-01T04:39:29;1.60;;;0.82;;
20393;SDS011;10356;50.544;9.642;2023-08-01T04:41:55;1.80;;;0.80;;
20393;SDS011;10356;50.544;9.642;2023-08-01T04:44:22;2.08;;;1.00;;
20393;SDS011;10356;50.544;9.642;2023-08-01T04:46:49;0.80;;;0.80;;
20393;SDS011;10356;50.544;9.642;2023-08-01T04:49:16;1.23;;;1.00;;
20393;SDS011;10356;50.544;9.642;2023-08-01T04:51:42;1.08;;;0.80;;
20393;SDS011;10356;50.544;9.642;2023-08-01T04:54:09;1.30;;;0.90;;
20393;SDS011;10356;50.544;9.642;2023-08-01T04:56:35;1.63;;;0.93;;
20393;SDS011;10356;50.544;9.642;2023-08-01T04:59:02;1.35;;;0.80;;
20393;SDS011;10356;50.544;9.642;2023-08-01T05:01:28;0.80;;;0.80;;
20393;SDS011;10356;50.544;9.642;2023-08-01T05:03:56;1.30;;;1.20;;
20393;SDS011;10356;50.544;9.642;2023-08-01T05:06:23;1.23;;;1.10;;
20393;SDS011;10356;50.544;9.642;2023-08-01T05:08:49;1.38;;;1.27;;
20393;SDS011;10356;50.544;9.642;2023-08-01T05:11:16;1.50;;;1.15;;
20393;SDS011;10356;50.544;9.642;2023-08-01T05:13:42;1.58;;;1.15;;
20393;SDS011;10356;50.544;9.642;2023-08-01T05:16:09;2.13;;;1.30;;
20393;SDS011;10356;50.544;9.642;2023-08-01T05:18:35;1.85;;;1.20;;
20393;SDS011;10356;50.544;9.642;2023-08-01T05:21:03;2.53;;;1.30;;
20393;SDS011;10356;50.544;9.642;2023-08-01T05:23:29;3.15;;;1.27;;
20393;SDS011;10356;50.544;9.642;2023-08-01T05:25:56;1.55;;;0.77;;
20393;SDS011;10356;50.544;9.642;2023-08-01T05:28:22;1.25;;;0.73;;
20393;SDS011;10356;50.544;9.642;2023-08-01T05:30:49;1.67;;;1.05;;
20393;SDS011;10356;50.544;9.642;2023-08-01T05:33:15;1.65;;;1.02;;
20393;SDS011;10356;50.544;9.642;2023-08-01T05:35:42;2.03;;;0.98;;
20393;SDS011;10356;50.544;9.642;2023-08-01T05:38:10;1.42;;;1.13;;
20393;SDS011;10356;50.544;9.642;2023-08-01T05:40:36;1.40;;;1.10;;
20393;SDS011;10356;50.544;9.642;2023-08-01T05:43:02;2.15;;;1.10;;
20393;SDS011;10356;50.544;9.642;2023-08-01T05:45:30;0.85;;;0.75;;
20393;SDS011;10356;50.544;9.642;2023-08-01T05:47:56;1.30;;;1.10;;
20393;SDS011;10356;50.544;9.642;2023-08-01T05:50:22;0.82;;;0.70;;
20393;SDS011;10356;50.544;9.642;2023-08-01T05:52:49;0.93;;;0.80;;
20393;SDS011;10356;50.544;9.642;2023-08-01T05:55:17;1.48;;;1.10;;
20393;SDS011;10356;50.544;9.642;2023-08-01T05:57:43;2.75;;;0.93;;
20393;SDS011;10356;50.544;9.642;2023-08-01T06:00:10;2.65;;;1.42;;
20393;SDS011;10356;50.544;9.642;2023-08-01T06:02:38;1.38;;;0.80;;
20393;SDS011;10356;50.544;9.642;2023-08-01T06:05:05;1.00;;;0.90;;
20393;SDS011;10356;50.544;9.642;2023-08-01T06:07:31;1.02;;;0.90;;
20393;SDS011;10356;50.544;9.642;2023-08-01T06:09:58;3.08;;;0.95;;
20393;SDS011;10356;50.544;9.642;2023-08-01T06:12:26;0.73;;;0.73;;
20393;SDS011;10356;50.544;9.642;2023-08-01T06:14:53;3.55;;;0.90;;
20393;SDS011;10356;50.544;9.642;2023-08-01T06:17:20;2.33;;;0.82;;
20393;SDS011;10356;50.544;9.642;2023-08-01T06:19:47;1.40;;;0.80;;
20393;SDS011;10356;50.544;9.642;2023-08-01T06:22:14;1.92;;;0.80;;
20393;SDS011;10356;50.544;9.642;2023-08-01T06:24:41;1.15;;;0.90;;
20393;SDS011;10356;50.544;9.642;2023-08-01T06:27:07;0.55;;;0.55;;
20393;SDS011;10356;50.544;9.642;2023-08-01T06:32:23;1.50;;;0.80;;
20393;SDS011;10356;50.544;9.642;2023-08-01T06:34:49;1.20;;;0.77;;
20393;SDS011;10356;50.544;9.642;2023-08-01T06:37:16;0.68;;;0.63;;
20393;SDS011;10356;50.544;9.642;2023-08-01T06:39:42;0.80;;;0.57;;
20393;SDS011;10356;50.544;9.642;2023-08-01T06:42:09;1.67;;;0.60;;
20393;SDS011;10356;50.544;9.642;2023-08-01T06:44:37;0.90;;;0.70;;
20393;SDS011;10356;50.544;9.642;2023-08-01T06:47:03;1.65;;;0.80;;
20393;SDS011;10356;50.544;9.642;2023-08-01T06:49:30;1.38;;;0.70;;
20393;SDS011;10356;50.544;9.642;2023-08-01T06:51:57;0.50;;;0.50;;
20393;SDS011;10356;50.544;9.642;2023-08-01T06:54:23;0.70;;;0.60;;
20393;SDS011;10356;50.544;9.642;2023-08-01T06:56:50;0.90;;;0.52;;
20393;SDS011;10356;50.544;9.642;2023-08-01T06:59:16;1.35;;;0.52;;
20393;SDS011;10356;50.544;9.642;2023-08-01T07:01:44;2.92;;;0.80;;
20393;SDS011;10356;50.544;9.642;2023-08-01T07:04:11;4.95;;;0.52;;
20393;SDS011;10356;50.544;9.642;2023-08-01T07:06:37;0.80;;;0.80;;
20393;SDS011;10356;50.544;9.642;2023-08-01T07:09:04;2.08;;;0.93;;
20393;SDS011;10356;50.544;9.642;2023-08-01T07:11:30;1.88;;;0.47;;
20393;SDS011;10356;50.544;9.642;2023-08-01T07:13:57;2.20;;;0.68;;
20393;SDS011;10356;50.544;9.642;2023-08-01T07:16:24;0.60;;;0.50;;
20393;SDS011;10356;50.544;9.642;2023-08-01T07:18:51;1.95;;;0.50;;
20393;SDS011;10356;50.544;9.642;2023-08-01T07:21:18;0.80;;;0.50;;
20393;SDS011;10356;50.544;9.642;2023-08-01T07:23:44;1.20;;;0.60;;
20393;SDS011;10356;50.544;9.642;2023-08-01T07:26:13;1.00;;;0.90;;
20393;SDS011;10356;50.544;9.642;2023-08-01T07:28:40;1.63;;;1.52;;
20393;SDS011;10356;50.544;9.642;2023-08-01T07:31:06;3.33;;;1.75;;
20393;SDS011;10356;50.544;9.642;2023-08-01T07:33:33;3.80;;;3.40;;
20393;SDS011;10356;50.544;9.642;2023-08-01T07:36:02;4.75;;;4.20;;
20393;SDS011;10356;50.544;9.642;2023-08-01T07:38:29;4.68;;;4.28;;
20393;SDS011;10356;50.544;9.642;2023-08-01T07:40:56;5.78;;;4.95;;
20393;SDS011;10356;50.544;9.642;2023-08-01T07:43:27;6.05;;;5.55;;
20393;SDS011;10356;50.544;9.642;2023-08-01T07:45:55;5.93;;;5.05;;
20393;SDS011;10356;50.544;9.642;2023-08-01T07:48:22;7.82;;;5.30;;
20393;SDS011;10356;50.544;9.642;2023-08-01T07:50:48;6.47;;;4.85;;
20393;SDS011;10356;50.544;9.642;2023-08-01T07:53:16;5.00;;;4.60;;
20393;SDS011;10356;50.544;9.642;2023-08-01T07:55:43;4.63;;;4.22;;
20393;SDS011;10356;50.544;9.642;2023-08-01T07:58:09;4.85;;;4.03;;
20393;SDS011;10356;50.544;9.642;2023-08-01T08:00:36;4.15;;;3.75;;
20393;SDS011;10356;50.544;9.642;2023-08-01T08:03:02;4.50;;;3.88;;
20393;SDS011;10356;50.544;9.642;2023-08-01T08:05:30;3.60;;;2.95;;
20393;SDS011;10356;50.544;9.642;2023-08-01T08:07:57;3.53;;;3.15;;
20393;SDS011;10356;50.544;9.642;2023-08-01T08:10:25;3.85;;;3.28;;
20393;SDS011;10356;50.544;9.642;2023-08-01T08:12:51;3.80;;;3.30;;
20393;SDS011;10356;50.544;9.642;2023-08-01T08:15:18;3.13;;;2.88;;
20393;SDS011;10356;50.544;9.642;2023-08-01T08:17:45;3.45;;;3.15;;
20393;SDS011;10356;50.544;9.642;2023-08-01T08:20:11;4.00;;;3.58;;
20393;SDS011;10356;50.544;9.642;2023-08-01T08:22:38;4.97;;;3.00;;
20393;SDS011;10356;50.544;9.642;2023-08-01T08:25:04;3.97;;;3.17;;
20393;SDS011;10356;50.544;9.642;2023-08-01T08:27:32;3.50;;;3.20;;
20393;SDS011;10356;50.544;9.642;2023-08-01T08:29:59;5.78;;;3.47;;
20393;SDS011;10356;50.544;9.642;2023-08-01T08:32:25;4.93;;;3.25;;
20393;SDS011;10356;50.544;9.642;2023-08-01T08:34:52;4.15;;;3.05;;
20393;SDS011;10356;50.544;9.642;2023-08-01T08:37:18;3.63;;;3.30;;
20393;SDS011;10356;50.544;9.642;2023-08-01T08:39:46;4.22;;;3.25;;
20393;SDS011;10356;50.544;9.642;2023-08-01T08:42:13;4.45;;;3.58;;
20393;SDS011;10356;50.544;9.642;2023-08-01T08:44:43;3.63;;;2.95;;
20393;SDS011;10356;50.544;9.642;2023-08-01T08:47:10;4.82;;;3.72;;
20393;SDS011;10356;50.544;9.642;2023-08-01T08:49:37;4.43;;;3.88;;
20393;SDS011;10356;50.544;9.642;2023-08-01T08:52:06;4.32;;;3.90;;
20393;SDS011;10356;50.544;9.642;2023-08-01T08:54:33;7.97;;;3.97;;
20393;SDS011;10356;50.544;9.642;2023-08-01T08:57:01;4.28;;;3.88;;
20393;SDS011;10356;50.544;9.642;2023-08-01T08:59:31;4.63;;;3.60;;
20393;SDS011;10356;50.544;9.642;2023-08-01T09:02:00;4.43;;;4.03;;
20393;SDS011;10356;50.544;9.642;2023-08-01T09:04:28;5.40;;;4.30;;
20393;SDS011;10356;50.544;9.642;2023-08-01T09:06:57;4.70;;;4.30;;
20393;SDS011;10356;50.544;9.642;2023-08-01T09:09:28;5.18;;;4.75;;
20393;SDS011;10356;50.544;9.642;2023-08-01T09:11:55;5.43;;;4.38;;
20393;SDS011;10356;50.544;9.642;2023-08-01T09:14:21;6.07;;;4.97;;
20393;SDS011;10356;50.544;9.642;2023-08-01T09:16:49;6.63;;;4.75;;
20393;SDS011;10356;50.544;9.642;2023-08-01T09:19:18;6.45;;;4.35;;
20393;SDS011;10356;50.544;9.642;2023-08-01T09:21:45;5.15;;;4.65;;
20393;SDS011;10356;50.544;9.642;2023-08-01T09:24:13;4.57;;;4.00;;
20393;SDS011;10356;50.544;9.642;2023-08-01T09:26:40;5.30;;;4.80;;
20393;SDS011;10356;50.544;9.642;2023-08-01T09:29:07;5.53;;;5.03;;
20393;SDS011;10356;50.544;9.642;2023-08-01T09:31:35;6.53;;;4.82;;
20393;SDS011;10356;50.544;9.642;2023-08-01T09:34:03;5.88;;;5.30;;
20393;SDS011;10356;50.544;9.642;2023-08-01T09:36:32;6.10;;;5.60;;
20393;SDS011;10356;50.544;9.642;2023-08-01T09:38:59;5.90;;;5.40;;
20393;SDS011;10356;50.544;9.642;2023-08-01T09:41:27;6.55;;;5.55;;
20393;SDS011;10356;50.544;9.642;2023-08-01T09:43:54;6.60;;;6.00;;
20393;SDS011;10356;50.544;9.642;2023-08-01T09:46:21;6.20;;;5.60;;
20393;SDS011;10356;50.544;9.642;2023-08-01T09:48:48;8.02;;;4.97;;
20393;SDS011;10356;50.544;9.642;2023-08-01T09:51:15;5.68;;;5.18;;
20393;SDS011;10356;50.544;9.642;2023-08-01T09:53:48;8.52;;;4.90;;
20393;SDS011;10356;50.544;9.642;2023-08-01T09:56:17;5.13;;;4.43;;
20393;SDS011;10356;50.544;9.642;2023-08-01T09:58:46;5.70;;;4.32;;
20393;SDS011;10356;50.544;9.642;2023-08-01T10:01:13;5.88;;;4.43;;
20393;SDS011;10356;50.544;9.642;2023-08-01T10:03:41;6.38;;;4.65;;
20393;SDS011;10356;50.544;9.642;2023-08-01T10:06:12;5.28;;;4.70;;
20393;SDS011;10356;50.544;9.642;2023-08-01T10:08:42;4.97;;;4.28;;
20393;SDS011;10356;50.544;9.642;2023-08-01T10:11:12;4.15;;;3.75;;
20393;SDS011;10356;50.544;9.642;2023-08-01T10:13:40;4.35;;;3.60;;
20393;SDS011;10356;50.544;9.642;2023-08-01T10:16:08;4.10;;;3.22;;
20393;SDS011;10356;50.544;9.642;2023-08-01T10:18:35;4.13;;;3.00;;
20393;SDS011;10356;50.544;9.642;2023-08-01T10:21:03;3.25;;;2.78;;
20393;SDS011;10356;50.544;9.642;2023-08-01T10:23:31;5.00;;;2.65;;
20393;SDS011;10356;50.544;9.642;2023-08-01T10:25:59;5.25;;;2.50;;
20393;SDS011;10356;50.544;9.642;2023-08-01T10:28:34;3.38;;;2.38;;
20393;SDS011;10356;50.544;9.642;2023-08-01T10:31:08;4.88;;;2.22;;
20393;SDS011;10356;50.544;9.642;2023-08-01T10:33:36;3.40;;;2.15;;
20393;SDS011;10356;50.544;9.642;2023-08-01T10:36:11;3.83;;;2.08;;
20393;SDS011;10356;50.544;9.642;2023-08-01T10:38:44;2.97;;;1.98;;
20393;SDS011;10356;50.544;9.642;2023-08-01T10:41:18;5.28;;;1.80;;
20393;SDS011;10356;50.544;9.642;2023-08-01T10:43:46;3.60;;;2.00;;
20393;SDS011;10356;50.544;9.642;2023-08-01T10:46:13;4.60;;;2.00;;
20393;SDS011;10356;50.544;9.642;2023-08-01T10:48:47;3.67;;;2.05;;
20393;SDS011;10356;50.544;9.642;2023-08-01T10:51:14;3.72;;;1.80;;
20393;SDS011;10356;50.544;9.642;2023-08-01T10:53:41;4.18;;;1.90;;
20393;SDS011;10356;50.544;9.642;2023-08-01T10:56:07;2.53;;;1.52;;
20393;SDS011;10356;50.544;9.642;2023-08-01T10:58:34;3.10;;;1.80;;
20393;SDS011;10356;50.544;9.642;2023-08-01T11:01:02;3.92;;;1.80;;
20393;SDS011;10356;50.544;9.642;2023-08-01T11:03:35;3.75;;;1.83;;
20393;SDS011;10356;50.544;9.642;2023-08-01T11:06:01;3.60;;;1.70;;
20393;SDS011;10356;50.544;9.642;2023-08-01T11:08:33;4.75;;;1.95;;
20393;SDS011;10356;50.544;9.642;2023-08-01T11:11:00;1.92;;;1.30;;
20393;SDS011;10356;50.544;9.642;2023-08-01T11:13:27;3.88;;;1.63;;
20393;SDS011;10356;50.544;9.642;2023-08-01T11:15:53;4.47;;;2.17;;
20393;SDS011;10356;50.544;9.642;2023-08-01T11:18:22;4.95;;;1.98;;
20393;SDS011;10356;50.544;9.642;2023-08-01T11:20:49;3.63;;;1.50;;
20393;SDS011;10356;50.544;9.642;2023-08-01T11:23:15;1.90;;;1.50;;
20393;SDS011;10356;50.544;9.642;2023-08-01T11:25:42;1.95;;;1.48;;
20393;SDS011;10356;50.544;9.642;2023-08-01T11:28:14;2.67;;;1.50;;
20393;SDS011;10356;50.544;9.642;2023-08-01T11:30:42;2.22;;;1.35;;
20393;SDS011;10356;50.544;9.642;2023-08-01T11:33:13;3.05;;;1.40;;
20393;SDS011;10356;50.544;9.642;2023-08-01T11:35:42;1.80;;;1.33;;
20393;SDS011;10356;50.544;9.642;2023-08-01T11:38:08;2.45;;;1.88;;
20393;SDS011;10356;50.544;9.642;2023-08-01T11:40:35;3.83;;;1.92;;
20393;SDS011;10356;50.544;9.642;2023-08-01T11:43:02;2.28;;;1.80;;
20393;SDS011;10356;50.544;9.642;2023-08-01T11:45:29;1.85;;;1.73;;
20393;SDS011;10356;50.544;9.642;2023-08-01T11:47:55;3.53;;;1.80;;
20393;SDS011;10356;50.544;9.642;2023-08-01T11:50:22;1.70;;;1.30;;
20393;SDS011;10356;50.544;9.642;2023-08-01T11:52:51;2.15;;;1.55;;
20393;SDS011;10356;50.544;9.642;2023-08-01T11:55:18;1.65;;;1.23;;
20393;SDS011;10356;50.544;9.642;2023-08-01T11:57:52;3.20;;;1.42;;
20393;SDS011;10356;50.544;9.642;2023-08-01T12:00:23;1.65;;;1.30;;
20393;SDS011;10356;50.544;9.642;2023-08-01T12:02:50;2.42;;;1.60;;
20393;SDS011;10356;50.544;9.642;2023-08-01T12:05:21;1.83;;;1.27;;
20393;SDS011;10356;50.544;9.642;2023-08-01T12:07:48;4.72;;;1.52;;
20393;SDS011;10356;50.544;9.642;2023-08-01T12:10:16;3.17;;;1.40;;
20393;SDS011;10356;50.544;9.642;2023-08-01T12:12:46;2.17;;;1.35;;
20393;SDS011;10356;50.544;9.642;2023-08-01T12:15:13;2.50;;;1.17;;
20393;SDS011;10356;50.544;9.642;2023-08-01T12:17:40;2.00;;;1.17;;
20393;SDS011;10356;50.544;9.642;2023-08-01T12:20:07;2.17;;;1.23;;
20393;SDS011;10356;50.544;9.642;2023-08-01T12:22:34;2.17;;;1.27;;
20393;SDS011;10356;50.544;9.642;2023-08-01T12:25:01;1.95;;;1.35;;
20393;SDS011;10356;50.544;9.642;2023-08-01T12:27:29;2.25;;;1.42;;
20393;SDS011;10356;50.544;9.642;2023-08-01T12:29:56;2.53;;;1.85;;
20393;SDS011;10356;50.544;9.642;2023-08-01T12:32:23;3.88;;;2.10;;
20393;SDS011;10356;50.544;9.642;2023-08-01T12:35:01;3.47;;;1.55;;
20393;SDS011;10356;50.544;9.642;2023-08-01T12:37:29;4.22;;;1.92;;
20393;SDS011;10356;50.544;9.642;2023-08-01T12:39:56;2.50;;;1.80;;
20393;SDS011;10356;50.544;9.642;2023-08-01T12:42:24;2.05;;;1.50;;
20393;SDS011;10356;50.544;9.642;2023-08-01T12:44:53;1.98;;;1.40;;
20393;SDS011;10356;50.544;9.642;2023-08-01T12:47:20;5.32;;;1.35;;
20393;SDS011;10356;50.544;9.642;2023-08-01T12:49:48;2.30;;;1.40;;
20393;SDS011;10356;50.544;9.642;2023-08-01T12:52:21;3.70;;;1.60;;
20393;SDS011;10356;50.544;9.642;2023-08-01T12:54:50;3.60;;;1.60;;
20393;SDS011;10356;50.544;9.642;2023-08-01T12:57:20;4.20;;;1.80;;
20393;SDS011;10356;50.544;9.642;2023-08-01T12:59:56;2.47;;;1.67;;
20393;SDS011;10356;50.544;9.642;2023-08-01T13:02:24;3.13;;;1.35;;
20393;SDS011;10356;50.544;9.642;2023-08-01T13:04:51;1.98;;;1.48;;
20393;SDS011;10356;50.544;9.642;2023-08-01T13:07:19;2.42;;;1.48;;
20393;SDS011;10356;50.544;9.642;2023-08-01T13:09:46;2.28;;;1.50;;
20393;SDS011;10356;50.544;9.642;2023-08-01T13:12:18;1.33;;;1.17;;
20393;SDS011;10356;50.544;9.642;2023-08-01T13:14:49;2.00;;;1.30;;
20393;SDS011;10356;50.544;9.642;2023-08-01T13:17:22;2.95;;;1.20;;
20393;SDS011;10356;50.544;9.642;2023-08-01T13:19:53;2.30;;;1.20;;
20393;SDS011;10356;50.544;9.642;2023-08-01T13:22:26;2.13;;;1.38;;
20393;SDS011;10356;50.544;9.642;2023-08-01T13:24:54;3.45;;;1.50;;
20393;SDS011;10356;50.544;9.642;2023-08-01T13:27:28;1.98;;;1.13;;
20393;SDS011;10356;50.544;9.642;2023-08-01T13:30:01;2.10;;;1.27;;
20393;SDS011;10356;50.544;9.642;2023-08-01T13:32:39;2.80;;;1.40;;
20393;SDS011;10356;50.544;9.642;2023-08-01T13:35:05;1.98;;;1.17;;
20393;SDS011;10356;50.544;9.642;2023-08-01T13:37:38;3.13;;;1.20;;
20393;SDS011;10356;50.544;9.642;2023-08-01T13:40:09;1.80;;;1.17;;
20393;SDS011;10356;50.544;9.642;2023-08-01T13:42:43;2.08;;;1.23;;
20393;SDS011;10356;50.544;9.642;2023-08-01T13:45:10;1.90;;;1.20;;
20393;SDS011;10356;50.544;9.642;2023-08-01T13:47:48;4.13;;;1.30;;
20393;SDS011;10356;50.544;9.642;2023-08-01T13:50:15;3.22;;;1.33;;
20393;SDS011;10356;50.544;9.642;2023-08-01T13:52:48;2.75;;;1.45;;
20393;SDS011;10356;50.544;9.642;2023-08-01T13:55:15;1.80;;;1.35;;
20393;SDS011;10356;50.544;9.642;2023-08-01T13:57:47;1.30;;;0.90;;
20393;SDS011;10356;50.544;9.642;2023-08-01T14:00:14;2.17;;;1.10;;
20393;SDS011;10356;50.544;9.642;2023-08-01T14:02:53;1.65;;;1.10;;
20393;SDS011;10356;50.544;9.642;2023-08-01T14:05:24;2.50;;;1.10;;
20393;SDS011;10356;50.544;9.642;2023-08-01T14:07:54;1.88;;;1.13;;
20393;SDS011;10356;50.544;9.642;2023-08-01T14:10:25;2.58;;;0.90;;
20393;SDS011;10356;50.544;9.642;2023-08-01T14:12:52;2.10;;;1.00;;
20393;SDS011;10356;50.544;9.642;2023-08-01T14:15:20;1.90;;;0.80;;
20393;SDS011;10356;50.544;9.642;2023-08-01T14:17:48;0.98;;;0.80;;
20393;SDS011;10356;50.544;9.642;2023-08-01T14:20:17;4.05;;;1.02;;
20393;SDS011;10356;50.544;9.642;2023-08-01T14:22:44;1.67;;;0.90;;
20393;SDS011;10356;50.544;9.642;2023-08-01T14:25:12;2.63;;;1.10;;
20393;SDS011;10356;50.544;9.642;2023-08-01T14:27:39;2.72;;;0.90;;
20393;SDS011;10356;50.544;9.642;2023-08-01T14:30:07;4.22;;;1.10;;
20393;SDS011;10356;50.544;9.642;2023-08-01T14:32:36;2.50;;;1.10;;
20393;SDS011;10356;50.544;9.642;2023-08-01T14:35:09;2.85;;;1.30;;
20393;SDS011;10356;50.544;9.642;2023-08-01T14:37:38;2.63;;;1.20;;
20393;SDS011;10356;50.544;9.642;2023-08-01T14:40:07;1.10;;;0.90;;
20393;SDS011;10356;50.544;9.642;2023-08-01T14:42:35;4.63;;;1.17;;
20393;SDS011;10356;50.544;9.642;2023-08-01T14:45:02;2.70;;;1.10;;
20393;SDS011;10356;50.544;9.642;2023-08-01T14:47:30;3.53;;;1.25;;
20393;SDS011;10356;50.544;9.642;2023-08-01T14:49:59;3.00;;;1.48;;
20393;SDS011;10356;50.544;9.642;2023-08-01T14:52:25;1.75;;;1.10;;